Time;durP1;ratioP1;P1;durP2;ratioP2;P2;SDS_P1;SDS_P2;PMS_P1;PMS_P2;Temp;Humidity;BMP_temperature;BMP_pressure;BME280_temperature;BME280_humidity;BME280_pressure;Samples;Min_cycle;Max_cycle;Signal;HPM_P1;HPM_P2
2023/05/24 00:01:55;;;;;;;2.60;2.40;;;;;;;17.30;66.00;95742.88;5045274;28;20255;-88
2023/05/24 00:04:23;;;;;;;2.70;2.50;;;;;;;17.31;66.52;95739.25;5046362;28;20202;-88
2023/05/24 00:06:53;;;;;;;3.20;2.90;;;;;;;17.37;66.26;95752.19;5027217;28;20297;-88
2023/05/24 00:09:25;;;;;;;7.95;2.70;;;;;;;17.44;66.07;95737.31;5030455;28;20263;-89
2023/05/24 00:11:52;;;;;;;3.05;2.30;;;;;;;17.49;65.67;95740.06;5047678;28;20589;-88
2023/05/24 00:14:18;;;;;;;2.80;2.58;;;;;;;17.57;65.36;95734.56;5047770;28;20236;-88
2023/05/24 00:16:45;;;;;;;2.78;2.58;;;;;;;17.58;64.87;95725.75;5047280;28;20229;-90
2023/05/24 00:19:17;;;;;;;2.70;2.50;;;;;;;17.45;65.66;95731.09;5048892;28;20229;-89
2023/05/24 00:21:43;;;;;;;2.92;2.60;;;;;;;17.33;66.24;95727.59;5050917;28;20202;-90
2023/05/24 00:24:11;;;;;;;2.75;2.50;;;;;;;17.26;66.41;95732.09;5051236;28;20201;-89
2023/05/24 00:26:38;;;;;;;3.83;2.70;;;;;;;17.20;66.93;95728.53;5051127;28;20588;-89
2023/05/24 00:29:04;;;;;;;3.13;2.85;;;;;;;17.08;67.14;95730.25;5051074;28;20202;-89
2023/05/24 00:31:32;;;;;;;3.20;3.00;;;;;;;17.10;66.43;95728.22;5050847;28;20213;-89
2023/05/24 00:33:58;;;;;;;3.00;2.80;;;;;;;17.15;66.44;95725.75;5051085;28;20208;-89
2023/05/24 00:36:24;;;;;;;3.35;3.00;;;;;;;17.10;66.74;95727.44;5051130;28;20228;-89
2023/05/24 00:38:51;;;;;;;2.92;2.72;;;;;;;17.15;66.59;95722.34;5051119;28;20198;-89
2023/05/24 00:41:19;;;;;;;3.08;2.80;;;;;;;17.14;66.47;95731.16;5050061;28;20770;-90
2023/05/24 00:43:46;;;;;;;3.50;3.25;;;;;;;17.15;66.72;95722.34;5030709;28;20202;-89
2023/05/24 00:46:16;;;;;;;3.40;3.10;;;;;;;17.13;66.95;95727.78;5048010;28;20240;-89
2023/05/24 00:48:44;;;;;;;3.30;3.08;;;;;;;17.07;67.11;95717.44;5050784;28;20204;-89
2023/05/24 00:51:12;;;;;;;3.60;3.30;;;;;;;16.95;66.86;95726.94;5050423;28;20260;-89
2023/05/24 00:53:41;;;;;;;3.90;3.50;;;;;;;16.91;67.16;95718.78;5050632;28;20232;-89
2023/05/24 00:56:08;;;;;;;3.30;3.00;;;;;;;17.09;66.88;95729.22;5050075;28;20233;-88
2023/05/24 00:58:36;;;;;;;3.17;2.97;;;;;;;17.11;66.78;95726.41;5050185;28;20212;-88
2023/05/24 01:01:05;;;;;;;3.80;3.50;;;;;;;16.97;67.92;95732.72;5038483;28;20198;-90
2023/05/24 01:03:32;;;;;;;3.30;3.10;;;;;;;17.04;67.44;95721.25;5029881;28;20328;-88
2023/05/24 01:09:37;;;;;;;3.05;2.85;;;;;;;17.04;67.74;95717.88;5049939;28;20189;-88
2023/05/24 01:12:15;;;;;;;3.33;3.10;;;;;;;17.03;68.27;95721.47;5043296;28;20217;-90
2023/05/24 01:14:58;;;;;;;3.22;2.92;;;;;;;17.07;67.85;95717.44;5036246;28;20237;-88
2023/05/24 01:17:32;;;;;;;3.17;2.97;;;;;;;16.90;68.63;95717.19;5030293;28;20205;-90
2023/05/24 01:20:05;;;;;;;4.05;3.40;;;;;;;16.91;68.37;95714.38;5030182;28;20205;-89
2023/05/24 01:23:04;;;;;;;3.22;3.03;;;;;;;16.96;68.20;95711.13;5030030;28;20213;-89
2023/05/24 01:25:52;;;;;;;3.78;3.40;;;;;;;16.90;68.01;95710.19;5026801;28;20773;-88
2023/05/24 01:28:22;;;;;;;3.83;3.53;;;;;;;16.87;67.88;95709.81;5029965;28;20202;-89
2023/05/24 01:30:48;;;;;;;3.70;3.40;;;;;;;16.88;68.30;95712.19;5030066;28;20210;-88
2023/05/24 01:33:15;;;;;;;3.35;3.05;;;;;;;16.97;67.92;95709.31;5029761;28;20209;-90
2023/05/24 01:35:41;;;;;;;3.65;3.35;;;;;;;16.90;68.49;95704.97;5029726;28;20637;-89
2023/05/24 01:38:09;;;;;;;3.67;3.40;;;;;;;16.91;68.22;95708.38;5033465;28;20194;-88
2023/05/24 01:40:38;;;;;;;5.13;3.90;;;;;;;16.82;68.58;95712.22;5049781;28;20639;-89
2023/05/24 01:43:14;;;;;;;3.95;3.65;;;;;;;16.77;69.01;95699.84;5048374;28;20667;-89
2023/05/24 01:45:50;;;;;;;3.92;3.53;;;;;;;16.79;68.66;95699.66;5030120;28;20219;-88
2023/05/24 01:48:25;;;;;;;3.92;3.63;;;;;;;16.82;69.00;95713.03;5029684;28;20210;-88
2023/05/24 01:50:55;;;;;;;3.72;3.45;;;;;;;16.82;68.70;95705.22;5029284;28;20209;-89
2023/05/24 01:53:25;;;;;;;4.05;3.67;;;;;;;16.77;69.14;95707.66;5029375;28;20699;-89
2023/05/24 01:55:54;;;;;;;4.20;3.90;;;;;;;16.75;68.43;95712.28;5029457;28;20225;-89
2023/05/24 01:58:23;;;;;;;4.60;4.20;;;;;;;16.71;68.86;95705.13;5029417;28;20747;-89
2023/05/24 02:00:51;;;;;;;3.90;3.60;;;;;;;16.77;69.24;95706.88;5039047;28;20200;-89
2023/05/24 02:03:19;;;;;;;3.95;3.65;;;;;;;16.91;68.49;95713.56;5048585;28;20223;-88
2023/05/24 02:05:46;;;;;;;4.13;3.80;;;;;;;16.95;68.71;95713.91;5035925;28;20226;-89
2023/05/24 02:08:12;;;;;;;4.60;3.90;;;;;;;16.87;69.04;95712.41;5029596;28;20205;-89
2023/05/24 02:10:40;;;;;;;4.25;3.90;;;;;;;16.84;68.85;95716.22;5043461;28;20197;-88
2023/05/24 02:13:07;;;;;;;4.40;4.00;;;;;;;16.97;68.25;95711.91;5049023;28;20209;-89
2023/05/24 02:15:37;;;;;;;4.20;3.90;;;;;;;16.97;68.05;95717.13;5049804;28;20232;-88
2023/05/24 02:18:06;;;;;;;3.95;3.65;;;;;;;16.91;68.10;95709.16;5049123;28;20275;-90
2023/05/24 02:20:35;;;;;;;4.07;3.78;;;;;;;16.90;68.05;95706.78;5048668;28;20291;-89
2023/05/24 02:23:02;;;;;;;4.60;4.20;;;;;;;16.83;68.34;95709.41;5048811;28;20201;-90
2023/05/24 02:25:28;;;;;;;4.03;3.72;;;;;;;16.88;68.49;95707.00;5048686;28;20313;-88
2023/05/24 02:27:55;;;;;;;4.20;3.90;;;;;;;16.76;69.59;95716.47;5048638;28;20198;-89
2023/05/24 02:30:22;;;;;;;4.00;3.60;;;;;;;16.73;69.52;95710.91;5048728;28;20209;-88
2023/05/24 02:32:48;;;;;;;3.70;3.47;;;;;;;16.86;68.85;95710.81;5048303;28;20207;-88
2023/05/24 02:35:16;;;;;;;3.85;3.55;;;;;;;16.82;69.31;95710.44;5048335;28;20225;-89
2023/05/24 02:37:42;;;;;;;4.18;3.78;;;;;;;16.88;68.64;95712.19;5048329;28;20236;-90
2023/05/24 02:40:17;;;;;;;4.40;4.10;;;;;;;16.73;68.76;95703.13;5037156;28;20206;-89
2023/05/24 02:42:43;;;;;;;4.05;3.75;;;;;;;16.77;68.83;95707.66;5028068;28;20202;-89
2023/05/24 02:45:10;;;;;;;4.70;4.30;;;;;;;16.72;68.98;95702.31;5028535;28;20586;-89
2023/05/24 02:47:36;;;;;;;4.88;3.90;;;;;;;16.77;68.65;95702.47;5028399;28;20205;-88
2023/05/24 02:50:03;;;;;;;4.38;4.00;;;;;;;16.69;68.86;95701.94;5028702;28;20210;-91
2023/05/24 02:52:31;;;;;;;4.07;3.70;;;;;;;16.69;69.13;95700.13;5028815;28;20324;-88
2023/05/24 02:54:58;;;;;;;4.43;4.03;;;;;;;16.76;68.38;95703.47;5028596;28;20222;-89
2023/05/24 02:57:24;;;;;;;4.50;4.20;;;;;;;16.75;68.99;95691.47;5028503;28;20221;-90
2023/05/24 02:59:51;;;;;;;4.47;4.07;;;;;;;16.72;68.95;95689.31;5029931;28;20198;-88
2023/05/24 03:02:18;;;;;;;4.03;3.63;;;;;;;16.70;68.95;95693.13;5047225;28;20206;-89
2023/05/24 03:04:44;;;;;;;4.55;4.15;;;;;;;16.74;68.64;95702.88;5043591;28;20288;-89
2023/05/24 03:07:11;;;;;;;4.38;4.00;;;;;;;16.56;69.54;95700.97;5028058;28;20238;-88
2023/05/24 03:09:39;;;;;;;4.68;4.18;;;;;;;16.68;69.34;95700.34;5033812;28;20201;-88
2023/05/24 03:12:06;;;;;;;4.13;3.83;;;;;;;16.63;68.88;95700.16;5048005;28;20247;-88
2023/05/24 03:14:32;;;;;;;4.53;4.13;;;;;;;16.62;68.78;95695.94;5047857;28;20208;-90
2023/05/24 03:17:01;;;;;;;4.68;4.20;;;;;;;16.50;69.41;95704.44;5048128;28;20224;-89
2023/05/24 03:19:27;;;;;;;4.55;4.25;;;;;;;16.43;69.66;95695.88;5047866;28;20201;-88
2023/05/24 03:21:54;;;;;;;4.07;3.78;;;;;;;16.56;69.29;95693.19;5047898;28;20209;-89
2023/05/24 03:24:22;;;;;;;4.20;3.85;;;;;;;16.63;69.38;95707.94;5048395;28;20201;-88
2023/05/24 03:26:49;;;;;;;5.50;4.30;;;;;;;16.65;68.97;95704.16;5048048;28;20706;-89
2023/05/24 03:29:16;;;;;;;4.65;4.30;;;;;;;16.59;69.16;95702.38;5048091;28;20686;-89
2023/05/24 03:31:42;;;;;;;4.93;4.53;;;;;;;16.55;69.38;95698.59;5047905;28;20234;-89
2023/05/24 03:34:09;;;;;;;4.82;4.43;;;;;;;16.57;69.03;95701.78;5048068;28;20598;-91
2023/05/24 03:36:35;;;;;;;5.03;4.63;;;;;;;16.52;69.58;95710.22;5034754;28;20226;-91
2023/05/24 03:39:03;;;;;;;4.90;4.50;;;;;;;16.47;69.46;95704.06;5029520;28;20683;-87
2023/05/24 03:41:29;;;;;;;5.13;4.72;;;;;;;16.44;69.54;95702.66;5027604;28;20213;-90
2023/05/24 03:43:57;;;;;;;5.05;4.65;;;;;;;16.36;70.00;95710.72;5027759;28;20249;-90
2023/05/24 03:46:24;;;;;;;5.15;4.75;;;;;;;16.21;69.96;95718.78;5028127;28;20225;-90
2023/05/24 03:48:50;;;;;;;5.43;4.93;;;;;;;16.18;70.72;95714.00;5027903;28;20202;-89
2023/05/24 03:51:17;;;;;;;6.03;4.50;;;;;;;16.28;70.26;95723.97;5027832;28;20264;-90
2023/05/24 03:53:43;;;;;;;5.00;4.50;;;;;;;16.29;70.59;95714.38;5028713;28;20209;-91
2023/05/24 03:56:10;;;;;;;5.28;4.80;;;;;;;16.24;70.58;95722.78;5031744;28;20233;-90
2023/05/24 03:58:37;;;;;;;5.43;4.93;;;;;;;16.22;70.44;95725.56;5031926;28;20213;-90
2023/05/24 04:01:05;;;;;;;5.40;4.90;;;;;;;16.21;71.06;95726.59;5043445;28;20575;-90
2023/05/24 04:03:32;;;;;;;5.38;4.85;;;;;;;16.27;70.61;95727.56;5050978;28;20731;-89
2023/05/24 04:05:59;;;;;;;6.28;4.75;;;;;;;16.29;70.96;95715.16;5036664;28;20226;-90
2023/05/24 04:08:28;;;;;;;5.50;4.63;;;;;;;16.30;71.37;95724.56;5031469;28;20202;-90
2023/05/24 04:10:54;;;;;;;5.95;4.78;;;;;;;16.30;70.98;95737.53;5047165;28;20197;-90
2023/05/24 04:13:21;;;;;;;8.77;4.97;;;;;;;16.24;71.58;95738.38;5051638;28;20372;-90
2023/05/24 04:15:47;;;;;;;6.03;4.93;;;;;;;16.26;71.37;95738.97;5051099;28;20213;-90
2023/05/24 04:18:15;;;;;;;5.40;5.00;;;;;;;16.32;70.65;95739.94;5051376;28;20224;-90
2023/05/24 04:20:41;;;;;;;5.50;4.90;;;;;;;16.31;70.73;95731.34;5051199;28;20205;-90
2023/05/24 04:23:08;;;;;;;5.60;5.10;;;;;;;16.32;71.03;95737.34;5051128;28;20201;-90
2023/05/24 04:25:34;;;;;;;5.20;4.70;;;;;;;16.20;71.62;95739.78;5050982;28;20221;-90
2023/05/24 04:28:02;;;;;;;5.20;4.70;;;;;;;16.21;70.80;95738.78;5051042;28;20194;-89
2023/05/24 04:30:29;;;;;;;5.38;4.88;;;;;;;16.18;69.04;95734.00;5051204;28;20215;-90
2023/05/24 04:32:56;;;;;;;5.10;4.50;;;;;;;16.14;68.80;95736.22;5043726;28;20194;-89
2023/05/24 04:35:24;;;;;;;5.75;5.15;;;;;;;16.06;68.51;95733.06;5031204;28;20222;-89
2023/05/24 04:37:50;;;;;;;5.43;4.93;;;;;;;16.00;68.41;95736.47;5031856;28;20226;-88
2023/05/24 04:40:19;;;;;;;4.80;4.40;;;;;;;15.90;69.63;95736.91;5031528;28;20198;-89
2023/05/24 04:42:46;;;;;;;5.50;4.90;;;;;;;15.93;69.77;95741.72;5030815;28;20202;-88
2023/05/24 04:45:12;;;;;;;7.07;4.72;;;;;;;16.05;69.35;95739.25;5031044;28;20222;-88
2023/05/24 04:47:39;;;;;;;4.97;4.47;;;;;;;16.02;68.90;95739.66;5031249;28;20194;-88
2023/05/24 04:50:06;;;;;;;5.95;4.55;;;;;;;15.95;68.60;95747.50;5030705;28;20202;-88
2023/05/24 04:52:35;;;;;;;6.28;4.70;;;;;;;16.05;68.87;95747.03;5030614;28;20233;-89
2023/05/24 04:55:01;;;;;;;5.03;4.25;;;;;;;15.92;69.12;95749.69;5030851;28;20226;-88
2023/05/24 04:57:28;;;;;;;4.70;4.22;;;;;;;15.88;69.04;95752.72;5031203;28;20218;-89
2023/05/24 04:59:54;;;;;;;4.57;4.18;;;;;;;15.88;68.11;95750.09;5034577;28;20233;-88
2023/05/24 05:02:21;;;;;;;4.72;4.20;;;;;;;15.80;67.90;95757.31;5052207;28;20209;-89
2023/05/24 05:04:48;;;;;;;5.13;4.38;;;;;;;15.77;68.26;95755.94;5047867;28;20301;-89
2023/05/24 05:07:14;;;;;;;4.60;4.20;;;;;;;15.89;68.19;95749.09;5034703;28;20199;-90
2023/05/24 05:09:42;;;;;;;4.50;4.10;;;;;;;15.88;67.96;95744.91;5041014;28;20272;-89
2023/05/24 05:12:08;;;;;;;5.05;4.10;;;;;;;15.99;68.19;95750.47;5053412;28;20213;-89
2023/05/24 05:14:35;;;;;;;4.95;4.50;;;;;;;15.96;67.73;95751.69;5054037;28;20202;-89
2023/05/24 05:17:01;;;;;;;5.00;4.18;;;;;;;15.96;67.83;95743.91;5052909;28;20225;-89
2023/05/24 05:19:27;;;;;;;5.70;5.00;;;;;;;15.91;67.28;95751.50;5052656;28;20212;-88
2023/05/24 05:21:54;;;;;;;26.20;22.13;;;;;;;15.94;68.01;95755.50;5052569;28;20209;-88
2023/05/24 05:24:21;;;;;;;13.13;11.63;;;;;;;16.01;68.03;95748.44;5052749;28;20208;-89
2023/05/24 05:26:48;;;;;;;6.35;5.75;;;;;;;16.02;67.89;95756.03;5021332;28;20233;-88
2023/05/24 05:29:15;;;;;;;5.95;4.50;;;;;;;15.99;67.53;95751.25;5054007;28;20205;-88
2023/05/24 05:31:41;;;;;;;5.03;4.40;;;;;;;15.97;67.74;95748.06;5050941;28;20212;-89
2023/05/24 05:34:09;;;;;;;7.65;4.80;;;;;;;15.95;68.00;95755.28;5051118;28;20205;-88
2023/05/24 05:36:39;;;;;;;4.82;4.43;;;;;;;15.90;67.52;95755.09;5050566;28;20232;-89
2023/05/24 05:39:09;;;;;;;5.78;4.60;;;;;;;15.93;67.54;95751.31;5051417;28;20236;-88
2023/05/24 05:41:37;;;;;;;6.78;4.57;;;;;;;16.02;67.75;95750.06;5051276;28;20201;-88
2023/05/24 05:44:05;;;;;;;5.00;4.60;;;;;;;16.10;66.97;95745.44;5050795;28;20201;-90
2023/05/24 05:46:34;;;;;;;5.47;4.82;;;;;;;16.03;66.87;95738.66;5052411;28;20638;-88
2023/05/24 05:49:00;;;;;;;6.50;5.40;;;;;;;15.99;66.51;95743.47;5054913;28;20201;-88
2023/05/24 05:51:27;;;;;;;7.10;5.97;;;;;;;15.96;67.21;95745.69;5054664;28;20859;-89
2023/05/24 05:53:53;;;;;;;6.55;5.28;;;;;;;15.95;67.37;95737.13;5059299;28;20206;-88
2023/05/24 05:56:19;;;;;;;5.97;5.30;;;;;;;16.02;67.47;95744.84;5056987;28;20773;-88
2023/05/24 05:58:46;;;;;;;6.50;5.90;;;;;;;16.21;66.50;95723.97;5057005;28;20218;-89
2023/05/24 06:01:15;;;;;;;5.65;5.15;;;;;;;16.34;66.52;95724.94;5047246;28;20206;-88
2023/05/24 06:03:41;;;;;;;5.90;5.30;;;;;;;16.45;66.14;95730.25;5033957;28;20202;-88
2023/05/24 06:06:08;;;;;;;5.97;5.30;;;;;;;16.41;65.97;95731.69;5050742;28;20214;-89
2023/05/24 06:08:35;;;;;;;10.40;4.88;;;;;;;16.43;66.13;95727.06;5055220;28;20220;-88
2023/05/24 06:11:01;;;;;;;7.18;6.20;;;;;;;16.33;66.14;95721.53;5056713;28;20201;-90
2023/05/24 06:13:30;;;;;;;6.38;5.78;;;;;;;16.35;66.17;95718.75;5053588;28;20263;-89
2023/05/24 06:15:57;;;;;;;7.57;6.18;;;;;;;16.40;66.41;95727.47;5052828;28;20256;-88
2023/05/24 06:18:26;;;;;;;7.07;6.38;;;;;;;16.51;66.17;95734.63;5053712;28;20588;-89
2023/05/24 06:20:52;;;;;;;7.85;7.07;;;;;;;16.52;65.24;95725.81;5054536;28;20208;-89
2023/05/24 06:23:19;;;;;;;6.72;5.85;;;;;;;16.42;65.65;95729.88;5057180;28;20205;-88
2023/05/24 06:25:46;;;;;;;8.40;6.65;;;;;;;16.41;65.96;95720.47;5056687;28;20221;-89
2023/05/24 06:28:12;;;;;;;6.65;6.05;;;;;;;16.44;66.27;95726.06;5055657;28;20243;-88
2023/05/24 06:30:38;;;;;;;24.02;21.67;;;;;;;16.47;66.41;95728.25;5054825;28;20694;-89
2023/05/24 06:33:05;;;;;;;38.17;33.90;;;;;;;16.61;66.49;95730.75;5053965;28;20209;-88
2023/05/24 06:35:33;;;;;;;12.27;10.13;;;;;;;16.84;65.70;95723.22;5053078;28;20312;-89
2023/05/24 06:38:07;;;;;;;7.18;6.47;;;;;;;16.83;64.82;95726.84;5052451;28;20730;-89
2023/05/24 06:40:34;;;;;;;6.40;5.40;;;;;;;16.83;64.01;95722.44;5056499;28;20220;-89
2023/05/24 06:43:12;;;;;;;6.05;5.45;;;;;;;16.53;65.76;95722.22;5063521;28;20216;-91
2023/05/24 06:45:39;;;;;;;6.88;4.90;;;;;;;16.75;66.09;95727.06;5067131;28;20225;-91
2023/05/24 06:48:06;;;;;;;8.25;5.50;;;;;;;16.94;64.67;95733.94;5067041;28;20189;-88
2023/05/24 06:50:35;;;;;;;6.68;6.07;;;;;;;16.97;64.62;95745.72;5065294;28;20205;-89
2023/05/24 06:53:01;;;;;;;6.75;6.15;;;;;;;16.96;64.48;95744.94;5055831;28;20227;-89
2023/05/24 06:55:38;;;;;;;6.35;5.75;;;;;;;16.95;64.08;95743.34;5052450;28;20232;-88
2023/05/24 06:58:07;;;;;;;6.93;6.25;;;;;;;16.80;65.47;95741.06;5048845;28;20221;-88
2023/05/24 07:00:34;;;;;;;6.40;5.90;;;;;;;16.79;64.44;95736.84;5041170;28;20202;-89
2023/05/24 07:03:00;;;;;;;7.07;6.38;;;;;;;16.82;64.51;95743.44;5027719;28;20202;-88
2023/05/24 07:05:27;;;;;;;6.50;5.90;;;;;;;17.00;64.14;95742.69;5038624;28;20220;-90
2023/05/24 07:07:54;;;;;;;7.47;5.70;;;;;;;17.00;64.52;95748.69;5048554;28;20205;-88
2023/05/24 07:10:21;;;;;;;6.00;5.50;;;;;;;17.06;64.76;95745.25;5047740;28;20304;-88
2023/05/24 07:12:48;;;;;;;6.40;5.75;;;;;;;17.00;63.25;95742.69;5048828;28;20270;-88
2023/05/24 07:15:14;;;;;;;6.45;5.85;;;;;;;16.99;63.51;95741.91;5048157;28;20721;-88
2023/05/24 07:17:41;;;;;;;6.20;5.68;;;;;;;17.04;63.67;95749.09;5048413;28;20239;-89
2023/05/24 07:20:09;;;;;;;7.00;6.20;;;;;;;17.03;63.83;95750.09;5047735;28;20209;-89
2023/05/24 07:22:36;;;;;;;6.93;5.80;;;;;;;17.05;64.15;95746.28;5048010;28;20746;-89
2023/05/24 07:25:05;;;;;;;6.90;5.88;;;;;;;17.07;63.28;95748.66;5048662;28;20218;-90
2023/05/24 07:27:31;;;;;;;6.32;5.80;;;;;;;17.18;63.56;95753.16;5049533;28;20281;-89
2023/05/24 07:29:58;;;;;;;7.00;6.30;;;;;;;17.24;63.49;95747.91;5053094;28;20208;-88
2023/05/24 07:32:25;;;;;;;7.45;6.07;;;;;;;17.30;63.41;95756.69;5052510;28;20236;-89
2023/05/24 07:34:52;;;;;;;7.80;6.25;;;;;;;17.35;63.31;95758.63;5052537;28;20248;-88
2023/05/24 07:37:18;;;;;;;5.63;5.20;;;;;;;17.46;62.23;95757.94;5051825;28;20228;-90
2023/05/24 07:39:47;;;;;;;6.75;5.82;;;;;;;17.38;62.34;95753.78;5050525;28;20198;-89
2023/05/24 07:42:17;;;;;;;5.70;5.20;;;;;;;17.53;61.76;95758.63;5052308;28;20555;-89
2023/05/24 07:44:50;;;;;;;6.82;6.22;;;;;;;17.53;60.34;95749.03;5051849;28;20202;-89
2023/05/24 07:47:27;;;;;;;34.60;30.85;;;;;;;17.50;61.60;95759.09;5051882;28;20674;-88
2023/05/24 07:49:56;;;;;;;9.45;8.57;;;;;;;17.45;60.95;95753.72;5051740;28;20205;-89
2023/05/24 07:52:23;;;;;;;7.47;6.88;;;;;;;17.48;61.26;95753.31;5052093;28;20205;-89
2023/05/24 07:54:50;;;;;;;7.35;6.70;;;;;;;17.51;60.91;95758.84;5051732;28;20197;-89
2023/05/24 07:57:18;;;;;;;7.80;7.10;;;;;;;17.44;60.87;95752.94;5052035;28;20280;-89
2023/05/24 08:00:05;;;;;;;7.82;7.13;;;;;;;17.41;60.11;95753.34;5051158;28;20212;-89
2023/05/24 08:02:32;;;;;;;7.18;6.57;;;;;;;17.54;61.28;95761.03;5031204;28;20206;-88
2023/05/24 08:04:59;;;;;;;7.80;7.00;;;;;;;17.64;61.29;95760.59;5038670;28;20228;-90
2023/05/24 08:07:25;;;;;;;8.45;7.75;;;;;;;17.61;60.62;95763.59;5052042;28;20229;-89
2023/05/24 08:09:53;;;;;;;8.30;7.60;;;;;;;17.57;59.90;95762.41;5051610;28;20578;-90
2023/05/24 08:12:29;;;;;;;8.95;8.20;;;;;;;17.69;60.09;95758.13;5051662;28;20452;-91
2023/05/24 08:14:55;;;;;;;9.00;8.30;;;;;;;17.73;60.04;95756.66;5051423;28;20624;-89
2023/05/24 08:17:26;;;;;;;9.63;8.68;;;;;;;17.68;58.89;95761.75;5051191;28;20197;-89
2023/05/24 08:19:57;;;;;;;9.63;8.82;;;;;;;17.64;59.24;95768.41;5051527;28;20202;-88
2023/05/24 08:22:37;;;;;;;9.60;8.52;;;;;;;17.55;60.56;95767.84;5051058;28;20202;-90
2023/05/24 08:25:05;;;;;;;10.02;9.23;;;;;;;17.66;60.81;95763.78;5051215;28;20236;-89
2023/05/24 08:27:38;;;;;;;10.40;9.50;;;;;;;17.55;59.85;95769.66;5051141;28;20356;-88
2023/05/24 08:30:12;;;;;;;9.70;8.80;;;;;;;17.52;60.87;95773.47;5051513;28;20194;-90
2023/05/24 08:32:39;;;;;;;10.43;9.48;;;;;;;17.55;61.28;95777.44;5051041;28;20197;-89
2023/05/24 08:35:20;;;;;;;9.38;8.57;;;;;;;17.70;60.13;95774.56;5050870;28;20267;-90
2023/05/24 08:37:47;;;;;;;8.50;7.60;;;;;;;17.68;59.82;95771.38;5050475;28;20257;-89
2023/05/24 08:40:14;;;;;;;8.68;7.78;;;;;;;17.55;60.23;95772.25;5049525;28;20201;-89
2023/05/24 08:42:42;;;;;;;7.65;7.05;;;;;;;17.47;60.73;95781.16;5051049;28;20228;-89
2023/05/24 08:45:11;;;;;;;8.00;7.30;;;;;;;17.39;60.30;95780.59;5051066;28;20632;-89
2023/05/24 08:47:38;;;;;;;7.32;6.65;;;;;;;17.46;60.75;95778.75;5050508;28;20197;-89
2023/05/24 08:50:09;;;;;;;12.43;11.13;;;;;;;17.41;60.39;95784.59;5050485;28;20324;-88
2023/05/24 08:52:36;;;;;;;7.82;7.03;;;;;;;17.42;60.71;95780.19;5050669;28;20204;-89
2023/05/24 08:55:04;;;;;;;7.55;6.80;;;;;;;17.29;61.12;95783.72;5050414;28;20737;-89
2023/05/24 08:57:33;;;;;;;7.70;7.00;;;;;;;17.22;61.83;95777.75;5050653;28;20204;-89
2023/05/24 09:00:01;;;;;;;7.63;7.03;;;;;;;17.25;61.25;95782.53;5047636;28;20195;-88
2023/05/24 09:02:28;;;;;;;8.32;7.47;;;;;;;17.35;61.40;95782.84;5029583;28;20202;-89
2023/05/24 09:04:59;;;;;;;8.10;7.40;;;;;;;17.36;61.37;95776.63;5036537;28;20206;-89
2023/05/24 09:07:50;;;;;;;8.57;7.88;;;;;;;17.50;60.68;95779.94;5050558;28;20209;-88
2023/05/24 09:10:21;;;;;;;8.30;7.50;;;;;;;17.54;60.23;95781.88;5039113;28;20230;-89
2023/05/24 09:12:53;;;;;;;8.43;7.72;;;;;;;17.57;60.23;95784.03;5036522;28;20202;-89
2023/05/24 09:15:28;;;;;;;10.35;8.27;;;;;;;17.56;61.04;95782.44;5031021;28;20225;-89
2023/05/24 09:17:57;;;;;;;84.25;75.15;;;;;;;17.52;60.04;95788.28;5030840;28;20218;-89
2023/05/24 09:20:24;;;;;;;21.38;19.23;;;;;;;17.63;58.97;95787.59;5030283;28;20202;-88
2023/05/24 09:22:52;;;;;;;9.43;8.52;;;;;;;17.54;58.17;95783.66;5030172;28;20198;-88
2023/05/24 09:25:24;;;;;;;7.63;7.03;;;;;;;17.56;58.20;95786.84;5030378;28;20218;-89
2023/05/24 09:27:52;;;;;;;7.75;6.93;;;;;;;17.50;58.88;95791.13;5030603;28;20259;-88
2023/05/24 09:30:23;;;;;;;7.40;6.78;;;;;;;17.45;58.81;95788.38;5030603;28;20202;-89
2023/05/24 09:33:00;;;;;;;7.72;7.05;;;;;;;17.44;59.08;95784.16;5030057;28;20293;-88
2023/05/24 09:35:27;;;;;;;7.72;7.03;;;;;;;17.49;58.95;95793.94;5030112;28;20222;-89
2023/05/24 09:37:59;;;;;;;7.97;6.80;;;;;;;17.55;59.57;95796.47;5031253;28;20738;-89
2023/05/24 09:40:26;;;;;;;7.10;6.50;;;;;;;17.48;59.04;95798.34;5050271;28;20197;-90
2023/05/24 09:43:18;;;;;;;;;;;;;;;;;;;;;
2023/05/24 09:45:47;;;;;;;7.35;6.60;;;;;;;17.37;59.47;95780.81;5049691;28;20221;-88
2023/05/24 09:48:16;;;;;;;6.90;6.18;;;;;;;17.30;58.32;95776.69;5050012;28;20201;-88
2023/05/24 09:50:44;;;;;;;6.97;6.28;;;;;;;17.31;58.40;95780.91;5049343;28;20237;-89
2023/05/24 09:53:11;;;;;;;6.45;5.85;;;;;;;17.28;58.05;95784.72;5049192;28;20574;-90
2023/05/24 09:55:50;;;;;;;7.07;6.32;;;;;;;17.19;59.51;95793.78;5049346;28;20229;-88
2023/05/24 09:58:17;;;;;;;11.82;9.30;;;;;;;17.17;59.68;95793.19;5049546;28;20224;-88
2023/05/24 10:00:44;;;;;;;40.00;34.28;;;;;;;17.15;59.71;95792.63;5049325;28;20377;-89
2023/05/24 10:03:13;;;;;;;9.95;8.98;;;;;;;17.01;61.51;95794.53;5048218;28;20585;-89
2023/05/24 10:05:45;;;;;;;8.95;8.02;;;;;;;17.11;62.54;95796.66;5033078;28;20221;-89
2023/05/24 10:08:13;;;;;;;7.88;7.10;;;;;;;17.04;63.16;95798.50;5040988;28;20202;-89
2023/05/24 10:10:39;;;;;;;9.05;8.13;;;;;;;16.85;65.79;95803.63;5042945;28;20194;-89
2023/05/24 10:13:06;;;;;;;8.75;7.78;;;;;;;16.76;64.43;95806.69;5048878;28;20340;-89
2023/05/24 10:15:32;;;;;;;8.25;7.40;;;;;;;16.82;64.83;95796.25;5048986;28;20308;-89
2023/05/24 10:18:00;;;;;;;11.07;7.78;;;;;;;16.82;65.78;95808.47;5048771;28;20212;-89
2023/05/24 10:20:28;;;;;;;9.52;7.63;;;;;;;16.94;65.55;95806.75;5049335;28;20201;-88
2023/05/24 10:23:04;;;;;;;10.07;8.18;;;;;;;16.88;66.30;95800.63;5048882;28;20602;-90
2023/05/24 10:25:45;;;;;;;9.32;7.43;;;;;;;16.99;65.65;95812.16;5048961;28;20229;-88
2023/05/24 10:28:13;;;;;;;8.50;7.70;;;;;;;17.01;65.55;95811.94;5048870;28;20193;-88
2023/05/24 10:30:54;;;;;;;10.70;6.95;;;;;;;17.08;66.15;95812.69;5049166;28;20346;-89
2023/05/24 10:37:04;;;;;;;7.63;6.80;;;;;;;16.96;63.38;95811.75;5048989;28;20208;-89
2023/05/24 10:39:33;;;;;;;7.28;6.35;;;;;;;16.98;63.40;95813.16;5034843;28;20234;-88
2023/05/24 10:42:02;;;;;;;8.82;7.93;;;;;;;16.95;62.65;95807.56;5040137;28;20193;-88
2023/05/24 10:44:31;;;;;;;10.25;6.97;;;;;;;16.99;63.86;95813.94;5048405;28;20705;-88
2023/05/24 10:47:14;;;;;;;9.45;6.43;;;;;;;17.06;62.77;95804.31;5048269;28;20779;-89
2023/05/24 10:49:52;;;;;;;8.27;7.05;;;;;;;17.10;62.22;95808.09;5047624;28;20201;-90
2023/05/24 10:52:21;;;;;;;7.05;6.35;;;;;;;17.13;62.58;95811.03;5048212;28;20212;-89
2023/05/24 10:55:12;;;;;;;8.65;6.22;;;;;;;17.09;61.30;95807.28;5048334;28;20201;-89
2023/05/24 10:57:39;;;;;;;8.05;6.72;;;;;;;17.04;62.63;95809.72;5028482;28;20205;-88
2023/05/24 11:00:27;;;;;;;11.70;10.10;;;;;;;17.00;61.30;95808.53;5045250;28;20214;-88
2023/05/24 11:03:00;;;;;;;9.73;7.72;;;;;;;16.98;59.99;95805.34;5047120;28;20678;-88
2023/05/24 11:05:37;;;;;;;11.60;8.82;;;;;;;16.98;59.78;95814.94;5034973;28;20297;-88
2023/05/24 11:08:12;;;;;;;7.40;6.50;;;;;;;17.13;60.25;95813.63;5028380;28;20679;-89
2023/05/24 11:10:40;;;;;;;8.02;6.70;;;;;;;17.12;59.44;95811.28;5041984;28;20225;-88
2023/05/24 11:13:08;;;;;;;8.18;6.13;;;;;;;17.18;59.96;95807.81;5047994;28;20220;-88
2023/05/24 11:15:50;;;;;;;7.43;5.78;;;;;;;17.13;59.39;95805.03;5048009;28;20229;-88
2023/05/24 11:18:19;;;;;;;7.28;6.07;;;;;;;17.21;59.59;95796.97;5048042;28;20216;-88
2023/05/24 11:20:47;;;;;;;7.85;5.88;;;;;;;17.20;59.66;95808.41;5047653;28;20666;-89
2023/05/24 11:23:16;;;;;;;6.13;5.15;;;;;;;17.25;60.70;95809.34;5047832;28;20189;-89
2023/05/24 11:25:47;;;;;;;6.55;5.07;;;;;;;17.20;59.50;95817.00;5047870;28;20291;-90
2023/05/24 11:28:14;;;;;;;5.20;4.55;;;;;;;17.39;58.82;95804.84;5047948;28;20193;-89
2023/05/24 11:30:40;;;;;;;6.30;5.07;;;;;;;17.40;59.33;95806.44;5048143;28;20212;-88
2023/05/24 11:33:18;;;;;;;8.90;7.43;;;;;;;17.37;58.40;95796.44;5048155;28;20750;-88
2023/05/24 11:35:58;;;;;;;36.70;31.50;;;;;;;17.41;58.96;95796.81;5047829;28;20223;-89
2023/05/24 11:38:26;;;;;;;14.45;11.05;;;;;;;17.40;59.73;95803.03;5043804;28;20742;-88
2023/05/24 11:40:59;;;;;;;7.55;5.70;;;;;;;17.55;58.60;95799.06;5028425;28;20198;-88
2023/05/24 11:43:30;;;;;;;9.68;5.30;;;;;;;17.60;58.27;95806.25;5028343;28;20202;-89
2023/05/24 11:45:57;;;;;;;8.45;4.88;;;;;;;17.60;58.54;95796.63;5027341;28;20268;-90
2023/05/24 11:48:24;;;;;;;7.10;5.38;;;;;;;17.75;57.51;95798.91;5028097;28;20262;-90
2023/05/24 11:50:51;;;;;;;8.25;5.63;;;;;;;17.74;56.43;95801.75;5028247;28;20206;-89